Terminal Aerodrome Forecast
Issued by NWS Amarillo, TX

Home | Current Version | Previous Version | Text Only | Print | Product List | Glossary On
Versions: 1 2 3 4 5 6 7 8 9 10 11 12 13 14 15 16 17 18 19 20
540
FTUS44 KAMA 251132
TAFDHT
TAF
KDHT 251132Z 2512/2612 28011KT P6SM SKC
     FM251800 22016G26KT P6SM SKC
     FM260200 22010KT P6SM SCT300=

USA.gov is the U.S. government's official web portal to all federal, state and local government web resources and services.